Time;durP1;ratioP1;P1;durP2;ratioP2;P2;SDS_P1;SDS_P2;PMS_P1;PMS_P2;Temp;Humidity;BMP_temperature;BMP_pressure;BME280_temperature;BME280_humidity;BME280_pressure;Samples;Min_cycle;Max_cycle;Signal;HPM_P1;HPM_P2
2023/08/27 00:01:05;;;;;;;7.55;3.78;;;;;;;;;;5067031;28;20048;-66
2023/08/27 00:03:34;;;;;;;7.43;3.78;;;;;;;;;;5069072;28;20187;-66
2023/08/27 00:06:01;;;;;;;5.10;3.35;;;;;;;;;;5069810;28;20051;-66
2023/08/27 00:08:28;;;;;;;5.90;3.10;;;;;;;;;;5071330;28;20060;-66
2023/08/27 00:10:58;;;;;;;3.88;2.83;;;;;;;;;;5063096;28;20053;-66
2023/08/27 00:13:26;;;;;;;6.85;3.08;;;;;;;;;;5063523;28;20071;-66
2023/08/27 00:15:53;;;;;;;5.55;3.30;;;;;;;;;;5072316;28;20047;-66
2023/08/27 00:18:20;;;;;;;5.43;3.10;;;;;;;;;;5064962;28;20049;-66
2023/08/27 00:20:49;;;;;;;5.00;3.30;;;;;;;;;;5069058;28;20041;-66
2023/08/27 00:23:16;;;;;;;3.65;3.08;;;;;;;;;;5071371;28;20055;-66
2023/08/27 00:25:44;;;;;;;4.07;2.80;;;;;;;;;;5059909;28;20047;-66
2023/08/27 00:28:13;;;;;;;4.03;2.90;;;;;;;;;;5068313;28;20515;-65
2023/08/27 00:30:40;;;;;;;6.22;3.17;;;;;;;;;;5067922;28;20106;-67
2023/08/27 00:33:08;;;;;;;4.45;3.17;;;;;;;;;;5067177;28;20048;-66
2023/08/27 00:35:35;;;;;;;4.60;3.00;;;;;;;;;;5072564;28;20098;-66
2023/08/27 00:38:04;;;;;;;6.40;3.47;;;;;;;;;;5064109;28;20045;-66
2023/08/27 00:40:31;;;;;;;4.25;2.80;;;;;;;;;;5068573;28;20052;-66
2023/08/27 00:42:58;;;;;;;4.35;3.30;;;;;;;;;;5063303;28;20048;-66
2023/08/27 00:45:26;;;;;;;4.68;3.05;;;;;;;;;;5052226;28;20040;-66
2023/08/27 00:47:53;;;;;;;4.20;3.05;;;;;;;;;;5070113;28;20044;-66
2023/08/27 00:50:20;;;;;;;4.40;3.10;;;;;;;;;;5054037;28;20400;-67
2023/08/27 00:52:48;;;;;;;4.20;3.30;;;;;;;;;;5069508;28;20048;-66
2023/08/27 00:55:17;;;;;;;3.72;3.10;;;;;;;;;;5051824;28;20071;-66
2023/08/27 00:57:45;;;;;;;4.30;3.20;;;;;;;;;;5070088;28;20078;-66
2023/08/27 01:00:12;;;;;;;5.18;3.28;;;;;;;;;;5067969;28;20077;-66
2023/08/27 01:02:42;;;;;;;4.40;3.08;;;;;;;;;;5059502;28;20059;-66
2023/08/27 01:05:09;;;;;;;4.18;3.20;;;;;;;;;;5067671;28;20063;-66
2023/08/27 01:07:39;;;;;;;4.47;3.30;;;;;;;;;;5068946;28;20064;-66
2023/08/27 01:10:12;;;;;;;4.07;3.08;;;;;;;;;;5066550;28;20407;-66
2023/08/27 01:12:44;;;;;;;5.23;3.50;;;;;;;;;;5071188;28;20125;-66
2023/08/27 01:15:13;;;;;;;4.50;3.17;;;;;;;;;;5071801;28;20048;-66
2023/08/27 01:17:41;;;;;;;8.05;3.30;;;;;;;;;;5063128;28;20102;-66
2023/08/27 01:20:09;;;;;;;4.63;3.25;;;;;;;;;;5068960;28;20044;-66
2023/08/27 01:22:38;;;;;;;4.72;3.22;;;;;;;;;;5068055;28;20074;-66
2023/08/27 01:25:06;;;;;;;4.65;3.33;;;;;;;;;;5068975;28;20072;-65
2023/08/27 01:27:38;;;;;;;3.58;2.72;;;;;;;;;;5071445;28;20113;-65
2023/08/27 01:30:10;;;;;;;5.35;3.40;;;;;;;;;;5070332;28;20044;-65
2023/08/27 01:32:40;;;;;;;4.68;3.35;;;;;;;;;;5071057;28;20102;-66
2023/08/27 01:35:08;;;;;;;9.02;3.40;;;;;;;;;;5065308;28;20057;-65
2023/08/27 01:37:35;;;;;;;4.68;3.50;;;;;;;;;;5070008;28;20399;-66
2023/08/27 01:40:05;;;;;;;5.03;3.08;;;;;;;;;;5069293;28;20048;-66
2023/08/27 01:42:33;;;;;;;6.15;3.85;;;;;;;;;;5066817;28;20081;-66
2023/08/27 01:45:00;;;;;;;6.10;3.80;;;;;;;;;;5060708;28;20444;-66
2023/08/27 01:47:27;;;;;;;4.88;3.80;;;;;;;;;;5063319;28;20048;-66
2023/08/27 01:49:55;;;;;;;4.97;3.40;;;;;;;;;;5051506;28;20050;-66
2023/08/27 01:52:22;;;;;;;5.38;3.80;;;;;;;;;;5069353;28;20040;-66
2023/08/27 01:54:49;;;;;;;6.15;3.97;;;;;;;;;;5069456;28;20048;-66
2023/08/27 01:57:18;;;;;;;4.50;3.55;;;;;;;;;;5069552;28;20052;-66
2023/08/27 01:59:45;;;;;;;7.75;3.75;;;;;;;;;;5070097;28;20053;-66
2023/08/27 02:02:12;;;;;;;7.43;4.00;;;;;;;;;;5051483;28;20048;-66
2023/08/27 02:04:40;;;;;;;7.50;3.53;;;;;;;;;;5061286;28;20500;-66
2023/08/27 02:07:07;;;;;;;4.38;3.33;;;;;;;;;;5068478;28;20052;-66
2023/08/27 02:09:34;;;;;;;4.35;3.67;;;;;;;;;;5069284;28;20052;-66
2023/08/27 02:12:01;;;;;;;5.95;4.07;;;;;;;;;;5067943;28;20491;-67
2023/08/27 02:14:30;;;;;;;5.65;3.63;;;;;;;;;;5067672;28;20504;-67
2023/08/27 02:16:57;;;;;;;7.65;3.80;;;;;;;;;;5063888;28;20047;-66
2023/08/27 02:19:24;;;;;;;8.60;4.40;;;;;;;;;;5060131;28;20044;-66
2023/08/27 02:21:52;;;;;;;7.00;3.88;;;;;;;;;;5068441;28;20393;-66
2023/08/27 02:24:19;;;;;;;5.45;3.80;;;;;;;;;;5054025;28;20049;-66
2023/08/27 02:26:46;;;;;;;5.53;4.03;;;;;;;;;;5068937;28;20110;-66
2023/08/27 02:29:13;;;;;;;5.95;4.10;;;;;;;;;;5070316;28;20040;-65
2023/08/27 02:31:42;;;;;;;5.47;3.92;;;;;;;;;;5064923;28;20420;-66
2023/08/27 02:34:09;;;;;;;5.68;3.95;;;;;;;;;;5063111;28;20052;-66
2023/08/27 02:36:36;;;;;;;5.50;4.13;;;;;;;;;;5057824;28;20060;-65
2023/08/27 02:39:04;;;;;;;6.13;4.07;;;;;;;;;;5045446;28;20044;-66
2023/08/27 02:41:31;;;;;;;5.43;3.90;;;;;;;;;;5063466;28;20496;-66
2023/08/27 02:43:58;;;;;;;5.63;3.78;;;;;;;;;;5058748;28;20053;-67
2023/08/27 02:46:25;;;;;;;6.38;4.03;;;;;;;;;;5059048;28;20063;-66
2023/08/27 02:48:54;;;;;;;7.30;4.07;;;;;;;;;;5068503;28;20047;-66
2023/08/27 02:51:21;;;;;;;6.18;4.30;;;;;;;;;;5069571;28;20040;-66
2023/08/27 02:53:50;;;;;;;5.07;3.67;;;;;;;;;;5069031;28;20057;-66
2023/08/27 02:56:18;;;;;;;8.32;4.38;;;;;;;;;;5064946;28;20419;-66
2023/08/27 02:58:45;;;;;;;6.00;3.70;;;;;;;;;;5073975;28;20045;-65
2023/08/27 03:01:18;;;;;;;5.45;4.05;;;;;;;;;;5069123;28;20044;-65
2023/08/27 03:03:46;;;;;;;6.13;4.00;;;;;;;;;;5073378;28;20097;-65
2023/08/27 03:06:15;;;;;;;5.63;3.70;;;;;;;;;;5056171;28;20055;-66
2023/08/27 03:08:42;;;;;;;8.35;4.45;;;;;;;;;;5071963;28;20052;-66
2023/08/27 03:11:09;;;;;;;7.50;4.07;;;;;;;;;;5067509;28;20133;-66
2023/08/27 03:13:36;;;;;;;6.00;4.38;;;;;;;;;;5073956;28;20048;-65
2023/08/27 03:16:04;;;;;;;5.45;4.05;;;;;;;;;;5067957;28;20603;-65
2023/08/27 03:18:31;;;;;;;8.10;4.80;;;;;;;;;;5073147;28;20545;-66
2023/08/27 03:20:58;;;;;;;7.15;4.85;;;;;;;;;;5073774;28;20044;-65
2023/08/27 03:23:30;;;;;;;6.63;4.45;;;;;;;;;;5070512;28;20543;-65
2023/08/27 03:25:58;;;;;;;6.90;4.95;;;;;;;;;;5068664;28;20048;-65
2023/08/27 03:28:25;;;;;;;8.20;4.90;;;;;;;;;;5053245;28;20048;-66
2023/08/27 03:30:52;;;;;;;8.05;5.10;;;;;;;;;;5070475;28;20049;-65
2023/08/27 03:33:19;;;;;;;6.88;4.80;;;;;;;;;;5072224;28;20044;-66
2023/08/27 03:35:51;;;;;;;9.05;5.63;;;;;;;;;;5068693;28;20075;-65
2023/08/27 03:38:19;;;;;;;7.65;5.13;;;;;;;;;;5065266;28;20392;-66
2023/08/27 03:40:50;;;;;;;7.57;5.03;;;;;;;;;;5070306;28;20084;-66
2023/08/27 03:43:17;;;;;;;9.30;5.05;;;;;;;;;;5072978;28;20048;-66
2023/08/27 03:45:44;;;;;;;7.28;5.00;;;;;;;;;;5070605;28;20411;-65
2023/08/27 03:48:12;;;;;;;5.93;4.78;;;;;;;;;;5072401;28;20376;-66
2023/08/27 03:50:39;;;;;;;7.57;5.25;;;;;;;;;;5068628;28;20404;-66
2023/08/27 03:53:07;;;;;;;7.80;4.90;;;;;;;;;;5069795;28;20522;-65
2023/08/27 03:55:39;;;;;;;8.48;5.38;;;;;;;;;;5063112;28;20052;-66
2023/08/27 03:58:08;;;;;;;7.53;5.20;;;;;;;;;;5067111;28;20044;-66
2023/08/27 04:00:36;;;;;;;11.70;5.50;;;;;;;;;;5065005;28;20415;-66
2023/08/27 04:03:04;;;;;;;7.15;5.00;;;;;;;;;;5070457;28;20049;-66
2023/08/27 04:05:32;;;;;;;7.75;5.10;;;;;;;;;;5063155;28;20056;-66
2023/08/27 04:07:59;;;;;;;8.02;5.38;;;;;;;;;;5071172;28;20049;-66
2023/08/27 04:10:26;;;;;;;8.50;5.70;;;;;;;;;;5063650;28;20512;-67
2023/08/27 04:12:55;;;;;;;8.18;5.18;;;;;;;;;;5072126;28;20053;-66
2023/08/27 04:15:24;;;;;;;9.75;5.25;;;;;;;;;;5069726;28;20053;-66
2023/08/27 04:17:51;;;;;;;9.48;5.78;;;;;;;;;;5067442;28;20400;-66
2023/08/27 04:20:18;;;;;;;10.07;5.28;;;;;;;;;;5069394;28;20041;-65
2023/08/27 04:22:45;;;;;;;8.00;5.25;;;;;;;;;;5067737;28;20111;-65
2023/08/27 04:25:15;;;;;;;9.43;5.90;;;;;;;;;;5051839;28;20054;-65
2023/08/27 04:27:43;;;;;;;9.95;6.22;;;;;;;;;;5070391;28;20045;-66
2023/08/27 04:30:11;;;;;;;8.77;5.72;;;;;;;;;;5069598;28;20119;-64
2023/08/27 04:32:40;;;;;;;12.35;5.63;;;;;;;;;;5070854;28;20534;-66
2023/08/27 04:35:07;;;;;;;16.23;5.18;;;;;;;;;;5065743;28;20052;-64
2023/08/27 04:37:35;;;;;;;10.52;4.63;;;;;;;;;;5070285;28;20053;-64
2023/08/27 04:40:03;;;;;;;5.85;3.92;;;;;;;;;;5070772;28;20045;-64
2023/08/27 04:42:30;;;;;;;7.68;4.15;;;;;;;;;;5064742;28;20155;-64
2023/08/27 04:44:57;;;;;;;6.10;3.90;;;;;;;;;;5057653;28;20072;-64
2023/08/27 04:47:25;;;;;;;9.43;4.90;;;;;;;;;;5065838;28;20111;-64
2023/08/27 04:49:53;;;;;;;7.00;4.90;;;;;;;;;;5057654;28;20045;-64
2023/08/27 04:52:21;;;;;;;9.05;4.82;;;;;;;;;;5069592;28;20385;-64
2023/08/27 04:54:48;;;;;;;8.70;4.95;;;;;;;;;;5052030;28;20048;-63
2023/08/27 04:57:15;;;;;;;7.43;5.00;;;;;;;;;;5069041;28;20048;-63
2023/08/27 04:59:42;;;;;;;8.20;5.53;;;;;;;;;;5069217;28;20052;-63
2023/08/27 05:02:09;;;;;;;8.77;5.20;;;;;;;;;;5071080;28;20049;-63
2023/08/27 05:04:37;;;;;;;10.27;5.78;;;;;;;;;;5071447;28;20055;-64
2023/08/27 05:07:05;;;;;;;8.45;6.00;;;;;;;;;;5070179;28;20373;-63
2023/08/27 05:09:32;;;;;;;8.30;5.22;;;;;;;;;;5060341;28;20060;-64
2023/08/27 05:12:00;;;;;;;8.75;5.65;;;;;;;;;;5071486;28;20053;-63
2023/08/27 05:14:27;;;;;;;10.23;5.57;;;;;;;;;;5069329;28;20044;-64
2023/08/27 05:16:54;;;;;;;10.77;5.78;;;;;;;;;;5065315;28;20044;-64
2023/08/27 05:19:21;;;;;;;10.20;4.95;;;;;;;;;;5063872;28;20052;-63
2023/08/27 05:21:49;;;;;;;14.65;5.57;;;;;;;;;;5069797;28;20047;-63
2023/08/27 05:24:17;;;;;;;9.20;5.05;;;;;;;;;;5062404;28;20131;-64
2023/08/27 05:26:44;;;;;;;8.57;4.97;;;;;;;;;;5065330;28;20060;-63
2023/08/27 05:29:12;;;;;;;10.05;4.97;;;;;;;;;;5068220;28;20051;-64
2023/08/27 05:31:39;;;;;;;7.68;5.10;;;;;;;;;;5068763;28;20044;-64
2023/08/27 05:34:07;;;;;;;9.10;5.38;;;;;;;;;;5071393;28;20048;-64
2023/08/27 05:36:34;;;;;;;6.72;4.90;;;;;;;;;;5067776;28;20427;-64
2023/08/27 05:39:02;;;;;;;7.40;4.65;;;;;;;;;;5069946;28;20041;-64
2023/08/27 05:41:30;;;;;;;7.22;4.65;;;;;;;;;;5069272;28;20090;-63
2023/08/27 05:43:58;;;;;;;7.95;4.95;;;;;;;;;;5067485;28;20056;-64
2023/08/27 05:46:25;;;;;;;12.73;4.90;;;;;;;;;;5048645;28;20056;-63
2023/08/27 05:48:52;;;;;;;10.30;5.25;;;;;;;;;;5065852;28;20051;-63
2023/08/27 05:51:19;;;;;;;8.60;5.20;;;;;;;;;;5065120;28;20488;-65
2023/08/27 05:53:46;;;;;;;10.30;5.00;;;;;;;;;;5069397;28;20367;-63
2023/08/27 05:56:14;;;;;;;7.47;3.60;;;;;;;;;;5065851;28;20059;-63
2023/08/27 05:58:42;;;;;;;5.47;2.70;;;;;;;;;;5068150;28;20682;-63
2023/08/27 06:01:10;;;;;;;5.53;3.03;;;;;;;;;;5067834;28;20048;-62
2023/08/27 06:03:37;;;;;;;8.50;3.88;;;;;;;;;;5068335;28;20083;-63
2023/08/27 06:06:04;;;;;;;6.40;4.18;;;;;;;;;;5070992;28;20045;-62
2023/08/27 06:08:32;;;;;;;7.38;4.85;;;;;;;;;;5069404;28;20052;-63
2023/08/27 06:10:59;;;;;;;7.93;5.00;;;;;;;;;;5069455;28;20049;-63
2023/08/27 06:13:26;;;;;;;10.32;5.00;;;;;;;;;;5070556;28;20054;-62
2023/08/27 06:15:55;;;;;;;9.80;5.82;;;;;;;;;;5070107;28;20059;-62
2023/08/27 06:18:22;;;;;;;14.32;5.90;;;;;;;;;;5053649;28;20045;-62
2023/08/27 06:20:50;;;;;;;10.15;5.75;;;;;;;;;;5068193;28;20102;-63
2023/08/27 06:23:18;;;;;;;11.35;5.43;;;;;;;;;;5067750;28;20430;-66
2023/08/27 06:25:45;;;;;;;11.25;5.95;;;;;;;;;;5066784;28;20048;-64
2023/08/27 06:28:15;;;;;;;14.50;6.30;;;;;;;;;;5058563;28;20052;-63
2023/08/27 06:30:42;;;;;;;10.40;6.68;;;;;;;;;;5070508;28;20052;-62
2023/08/27 06:33:11;;;;;;;13.30;6.75;;;;;;;;;;5051807;28;20053;-63
2023/08/27 06:35:38;;;;;;;11.88;6.63;;;;;;;;;;5055213;28;20473;-63
2023/08/27 06:38:06;;;;;;;12.88;7.28;;;;;;;;;;5051172;28;20048;-63
2023/08/27 06:40:33;;;;;;;12.07;7.60;;;;;;;;;;5069692;28;20048;-63
2023/08/27 06:43:00;;;;;;;13.35;6.95;;;;;;;;;;5069268;28;20044;-62
2023/08/27 06:45:27;;;;;;;16.63;7.20;;;;;;;;;;5070139;28;20059;-62
2023/08/27 06:47:55;;;;;;;10.77;6.57;;;;;;;;;;5065569;28;20227;-62
2023/08/27 06:50:24;;;;;;;13.23;6.72;;;;;;;;;;5066071;28;20110;-66
2023/08/27 06:52:51;;;;;;;10.18;6.35;;;;;;;;;;5067615;28;20052;-63
2023/08/27 06:55:18;;;;;;;12.73;6.95;;;;;;;;;;5050370;28;20470;-63
2023/08/27 06:57:46;;;;;;;12.05;6.47;;;;;;;;;;5070129;28;20048;-63
2023/08/27 07:00:13;;;;;;;11.57;6.60;;;;;;;;;;5069756;28;20045;-62
2023/08/27 07:02:41;;;;;;;11.13;6.30;;;;;;;;;;5069816;28;20056;-63
2023/08/27 07:05:09;;;;;;;9.85;5.13;;;;;;;;;;5069348;28;20419;-63
2023/08/27 07:07:38;;;;;;;8.30;5.28;;;;;;;;;;5070084;28;20048;-62
2023/08/27 07:10:06;;;;;;;8.32;4.85;;;;;;;;;;5064654;28;20048;-64
2023/08/27 07:12:33;;;;;;;8.57;4.30;;;;;;;;;;5061052;28;20054;-63
2023/08/27 07:15:00;;;;;;;6.72;3.70;;;;;;;;;;5063373;28;20044;-62
2023/08/27 07:17:27;;;;;;;11.63;4.38;;;;;;;;;;5066255;28;20053;-63
2023/08/27 07:19:55;;;;;;;7.13;3.75;;;;;;;;;;5048852;28;20060;-63
2023/08/27 07:22:22;;;;;;;8.27;3.70;;;;;;;;;;5063992;28;20592;-62
2023/08/27 07:24:51;;;;;;;6.40;2.88;;;;;;;;;;5068624;28;20059;-62
2023/08/27 07:27:18;;;;;;;6.97;2.70;;;;;;;;;;5070882;28;20499;-62
2023/08/27 07:29:46;;;;;;;7.32;3.33;;;;;;;;;;5071914;28;20044;-62
2023/08/27 07:32:13;;;;;;;6.35;3.38;;;;;;;;;;5070063;28;20052;-62
2023/08/27 07:34:40;;;;;;;9.40;3.90;;;;;;;;;;5068073;28;20380;-62
2023/08/27 07:37:07;;;;;;;6.78;3.70;;;;;;;;;;5074490;28;20040;-62
2023/08/27 07:39:34;;;;;;;10.13;3.67;;;;;;;;;;5067505;28;20044;-62
2023/08/27 07:42:03;;;;;;;8.80;4.07;;;;;;;;;;5067805;28;20071;-63
2023/08/27 07:44:31;;;;;;;7.70;3.67;;;;;;;;;;5071831;28;20545;-63
2023/08/27 07:46:58;;;;;;;8.13;3.17;;;;;;;;;;5070387;28;20534;-63
2023/08/27 07:49:25;;;;;;;5.38;2.47;;;;;;;;;;5072347;28;20047;-62
2023/08/27 07:51:53;;;;;;;5.43;1.90;;;;;;;;;;5072961;28;20075;-66
2023/08/27 07:54:21;;;;;;;3.92;1.70;;;;;;;;;;5074118;28;20049;-63
2023/08/27 07:56:48;;;;;;;3.45;1.00;;;;;;;;;;5068485;28;20510;-63
2023/08/27 07:59:16;;;;;;;3.25;1.13;;;;;;;;;;5074119;28;20110;-63
2023/08/27 08:01:44;;;;;;;3.38;0.93;;;;;;;;;;5066980;28;20048;-64
2023/08/27 08:04:11;;;;;;;1.27;0.50;;;;;;;;;;5072207;28;20047;-63
2023/08/27 08:06:38;;;;;;;1.15;0.52;;;;;;;;;;5065340;28;20048;-62
2023/08/27 08:09:06;;;;;;;1.52;0.55;;;;;;;;;;5062052;28;20561;-62
2023/08/27 08:11:34;;;;;;;1.30;0.40;;;;;;;;;;5069566;28;20132;-63
2023/08/27 08:14:01;;;;;;;0.30;0.30;;;;;;;;;;5072877;28;20454;-63
2023/08/27 08:16:29;;;;;;;2.30;0.40;;;;;;;;;;5072619;28;20052;-63
2023/08/27 08:18:57;;;;;;;0.60;0.30;;;;;;;;;;5055205;28;20067;-64
2023/08/27 08:21:24;;;;;;;0.77;0.60;;;;;;;;;;5072797;28;20056;-64
2023/08/27 08:23:52;;;;;;;0.50;0.30;;;;;;;;;;5063727;28;20086;-64
2023/08/27 08:26:19;;;;;;;1.25;0.40;;;;;;;;;;5069056;28;20522;-64
2023/08/27 08:28:46;;;;;;;0.65;0.30;;;;;;;;;;5072679;28;20063;-63
2023/08/27 08:31:13;;;;;;;0.65;0.40;;;;;;;;;;5053484;28;20048;-64
2023/08/27 08:33:42;;;;;;;0.55;0.40;;;;;;;;;;5072470;28;20510;-64
2023/08/27 08:36:09;;;;;;;0.38;0.30;;;;;;;;;;5070894;28;20060;-65
2023/08/27 08:38:37;;;;;;;0.28;0.20;;;;;;;;;;5067161;28;20053;-64
2023/08/27 08:41:05;;;;;;;0.52;0.22;;;;;;;;;;5067970;28;20094;-64
2023/08/27 08:43:37;;;;;;;0.20;0.20;;;;;;;;;;5072653;28;20052;-64
2023/08/27 08:46:05;;;;;;;0.90;0.30;;;;;;;;;;5069651;28;20052;-64
2023/08/27 08:48:33;;;;;;;1.02;0.40;;;;;;;;;;5071574;28;20051;-64
2023/08/27 08:51:03;;;;;;;2.17;0.30;;;;;;;;;;5070028;28;20479;-65
2023/08/27 08:53:32;;;;;;;0.30;0.30;;;;;;;;;;5060145;28;20052;-65
2023/08/27 08:56:02;;;;;;;0.40;0.25;;;;;;;;;;5070038;28;20510;-65
2023/08/27 08:58:31;;;;;;;0.50;0.30;;;;;;;;;;5071556;28;20049;-65
2023/08/27 09:00:58;;;;;;;0.40;0.20;;;;;;;;;;5072775;28;20052;-65
2023/08/27 09:03:27;;;;;;;3.92;0.40;;;;;;;;;;5071208;28;20049;-65
2023/08/27 09:05:55;;;;;;;2.67;0.30;;;;;;;;;;5071405;28;20087;-64
2023/08/27 09:08:24;;;;;;;0.45;0.30;;;;;;;;;;5070867;28;20045;-65
2023/08/27 09:10:52;;;;;;;1.40;0.30;;;;;;;;;;5067684;28;20416;-64
2023/08/27 09:13:20;;;;;;;0.43;0.28;;;;;;;;;;5065249;28;20048;-64
2023/08/27 09:15:48;;;;;;;0.63;0.20;;;;;;;;;;5070637;28;20569;-63
2023/08/27 09:18:15;;;;;;;0.57;0.35;;;;;;;;;;5071933;28;20045;-64
2023/08/27 09:20:42;;;;;;;0.20;0.20;;;;;;;;;;5065702;28;20041;-65
2023/08/27 09:23:10;;;;;;;0.43;0.35;;;;;;;;;;5068500;28;20045;-65
2023/08/27 09:25:38;;;;;;;0.65;0.30;;;;;;;;;;5069570;28;20514;-65
2023/08/27 09:28:06;;;;;;;0.57;0.30;;;;;;;;;;5070342;28;20139;-64
2023/08/27 09:30:34;;;;;;;0.85;0.50;;;;;;;;;;5071864;28;20057;-65
2023/08/27 09:33:03;;;;;;;0.93;0.50;;;;;;;;;;5070296;28;20055;-65
2023/08/27 09:35:39;;;;;;;0.47;0.40;;;;;;;;;;5063116;28;20170;-65
2023/08/27 09:38:06;;;;;;;0.45;0.35;;;;;;;;;;5065764;28;20049;-65
2023/08/27 09:40:34;;;;;;;0.75;0.60;;;;;;;;;;5070420;28;20055;-66
2023/08/27 09:43:06;;;;;;;0.95;0.52;;;;;;;;;;5062889;28;20053;-65
2023/08/27 09:45:34;;;;;;;1.25;0.60;;;;;;;;;;5069182;28;20044;-65
2023/08/27 09:48:02;;;;;;;1.65;0.80;;;;;;;;;;5069854;28;20095;-65
2023/08/27 09:50:30;;;;;;;2.15;0.60;;;;;;;;;;5067425;28;20063;-64
2023/08/27 09:53:12;;;;;;;1.45;0.70;;;;;;;;;;5044559;28;20048;-65
2023/08/27 09:55:39;;;;;;;0.57;0.50;;;;;;;;;;5069817;28;20053;-65
2023/08/27 09:58:10;;;;;;;1.10;0.40;;;;;;;;;;5050024;28;20526;-68
2023/08/27 10:00:38;;;;;;;1.52;0.50;;;;;;;;;;5059143;28;20543;-65
2023/08/27 10:03:06;;;;;;;0.98;0.60;;;;;;;;;;5065063;28;20087;-66
2023/08/27 10:05:35;;;;;;;0.75;0.50;;;;;;;;;;5069846;28;20491;-65
2023/08/27 10:08:03;;;;;;;1.08;0.50;;;;;;;;;;5070550;28;20136;-63
2023/08/27 10:10:31;;;;;;;1.00;0.50;;;;;;;;;;5065638;28;20080;-64
2023/08/27 10:12:59;;;;;;;0.75;0.35;;;;;;;;;;5070641;28;20056;-65
2023/08/27 10:15:29;;;;;;;1.65;0.68;;;;;;;;;;5070078;28;20048;-65
2023/08/27 10:17:57;;;;;;;1.67;0.60;;;;;;;;;;5068282;28;20087;-65
2023/08/27 10:20:24;;;;;;;1.48;0.60;;;;;;;;;;5067348;28;20114;-64
2023/08/27 10:22:52;;;;;;;1.00;0.57;;;;;;;;;;5059154;28;20060;-64
2023/08/27 10:25:19;;;;;;;0.95;0.60;;;;;;;;;;5067614;28;20055;-65
2023/08/27 10:27:47;;;;;;;2.65;0.57;;;;;;;;;;5051754;28;20531;-65
2023/08/27 10:30:16;;;;;;;3.22;0.60;;;;;;;;;;5063846;28;20041;-65
2023/08/27 10:32:45;;;;;;;1.27;0.50;;;;;;;;;;5065643;28;20068;-65
2023/08/27 10:35:12;;;;;;;1.48;0.60;;;;;;;;;;5070438;28;20058;-66
2023/08/27 10:37:40;;;;;;;0.38;0.38;;;;;;;;;;5066135;28;20059;-65
2023/08/27 10:40:08;;;;;;;0.77;0.50;;;;;;;;;;5070100;28;20045;-65
2023/08/27 10:42:37;;;;;;;0.93;0.55;;;;;;;;;;5068286;28;20427;-65
2023/08/27 10:45:10;;;;;;;2.40;0.55;;;;;;;;;;5062899;28;20114;-66
2023/08/27 10:47:38;;;;;;;0.75;0.40;;;;;;;;;;5063940;28;20045;-65
2023/08/27 10:50:08;;;;;;;1.73;0.50;;;;;;;;;;5052888;28;20123;-66
2023/08/27 10:52:49;;;;;;;2.35;0.50;;;;;;;;;;5069163;28;20048;-65
2023/08/27 10:55:16;;;;;;;1.83;0.40;;;;;;;;;;5069279;28;20089;-67
2023/08/27 10:57:44;;;;;;;0.98;0.40;;;;;;;;;;5069940;28;20056;-65
2023/08/27 11:00:12;;;;;;;1.10;0.30;;;;;;;;;;5051286;28;20168;-65
2023/08/27 11:02:58;;;;;;;0.38;0.30;;;;;;;;;;5070831;28;20052;-65
2023/08/27 11:05:30;;;;;;;0.40;0.25;;;;;;;;;;5069123;28;20049;-67
2023/08/27 11:08:00;;;;;;;0.55;0.28;;;;;;;;;;5069801;28;20060;-66
2023/08/27 11:10:34;;;;;;;2.10;0.40;;;;;;;;;;5065066;28;20053;-65
2023/08/27 11:13:02;;;;;;;3.53;0.57;;;;;;;;;;5065598;28;20060;-64
2023/08/27 11:15:31;;;;;;;0.90;0.40;;;;;;;;;;5065178;28;20049;-64
2023/08/27 11:18:00;;;;;;;0.95;0.30;;;;;;;;;;5068817;28;20049;-65
2023/08/27 11:20:28;;;;;;;1.33;0.28;;;;;;;;;;5070106;28;20052;-65
2023/08/27 11:22:57;;;;;;;2.35;0.50;;;;;;;;;;5069936;28;20532;-64
2023/08/27 11:25:25;;;;;;;0.73;0.30;;;;;;;;;;5069153;28;20105;-65
2023/08/27 11:27:53;;;;;;;0.65;0.30;;;;;;;;;;5073149;28;20052;-64
2023/08/27 11:30:20;;;;;;;2.05;0.47;;;;;;;;;;5059534;28;20045;-65
2023/08/27 11:32:48;;;;;;;1.80;0.38;;;;;;;;;;5061957;28;20048;-64
2023/08/27 11:35:15;;;;;;;4.78;0.52;;;;;;;;;;5047492;28;20048;-65
2023/08/27 11:37:42;;;;;;;1.05;0.38;;;;;;;;;;5065605;28;20127;-68
2023/08/27 11:40:22;;;;;;;1.77;0.43;;;;;;;;;;5064074;28;20037;-64
2023/08/27 11:42:50;;;;;;;3.22;0.30;;;;;;;;;;5068462;28;20052;-64
2023/08/27 11:45:17;;;;;;;1.60;0.40;;;;;;;;;;5071008;28;20110;-66
2023/08/27 11:47:45;;;;;;;2.33;0.70;;;;;;;;;;5062743;28;20408;-65
2023/08/27 11:50:13;;;;;;;2.58;0.30;;;;;;;;;;5072088;28;20438;-68
2023/08/27 11:52:41;;;;;;;0.82;0.22;;;;;;;;;;5068652;28;20571;-65
2023/08/27 11:55:08;;;;;;;1.55;0.20;;;;;;;;;;5067395;28;20130;-66
2023/08/27 11:57:37;;;;;;;0.20;0.20;;;;;;;;;;5072882;28;20049;-65
2023/08/27 12:00:11;;;;;;;1.33;0.30;;;;;;;;;;5064784;28;20515;-65
2023/08/27 12:02:39;;;;;;;4.80;0.40;;;;;;;;;;5072186;28;20042;-66
2023/08/27 12:05:07;;;;;;;1.88;0.30;;;;;;;;;;5072178;28;20102;-65
2023/08/27 12:07:35;;;;;;;1.48;0.30;;;;;;;;;;5073247;28;20439;-67
2023/08/27 12:10:07;;;;;;;1.25;0.50;;;;;;;;;;5070407;28;20053;-66
2023/08/27 12:12:39;;;;;;;1.83;0.50;;;;;;;;;;5072301;28;20454;-67
2023/08/27 12:15:06;;;;;;;1.08;0.40;;;;;;;;;;5066306;28;20404;-66
2023/08/27 12:17:34;;;;;;;0.20;0.20;;;;;;;;;;5061837;28;20055;-66
2023/08/27 12:20:05;;;;;;;1.35;0.57;;;;;;;;;;5067996;28;20048;-66
2023/08/27 12:22:33;;;;;;;1.85;0.40;;;;;;;;;;5065900;28;20063;-66
2023/08/27 12:25:01;;;;;;;1.60;0.73;;;;;;;;;;5066446;28;20053;-67
2023/08/27 12:27:29;;;;;;;0.40;0.38;;;;;;;;;;5072729;28;20056;-66
2023/08/27 12:29:58;;;;;;;1.20;0.40;;;;;;;;;;5071154;28;20053;-66
2023/08/27 12:32:30;;;;;;;2.78;0.70;;;;;;;;;;5072086;28;20048;-68
2023/08/27 12:34:57;;;;;;;1.20;0.47;;;;;;;;;;5066063;28;20049;-66
2023/08/27 12:37:25;;;;;;;0.30;0.30;;;;;;;;;;5069516;28;20041;-66
2023/08/27 12:39:52;;;;;;;0.50;0.50;;;;;;;;;;5072140;28;20476;-65
2023/08/27 12:42:19;;;;;;;0.80;0.50;;;;;;;;;;5071222;28;20040;-66
2023/08/27 12:44:46;;;;;;;2.13;0.60;;;;;;;;;;5073000;28;20075;-66
2023/08/27 12:47:15;;;;;;;6.60;0.70;;;;;;;;;;5070307;28;20041;-66
2023/08/27 12:49:42;;;;;;;4.43;0.77;;;;;;;;;;5066239;28;20484;-66
2023/08/27 12:52:10;;;;;;;1.38;0.40;;;;;;;;;;5066858;28;20055;-66
2023/08/27 12:54:37;;;;;;;1.13;0.43;;;;;;;;;;5072001;28;20064;-66
2023/08/27 12:57:04;;;;;;;3.00;0.45;;;;;;;;;;5070373;28;20067;-66
2023/08/27 12:59:31;;;;;;;0.73;0.40;;;;;;;;;;5071764;28;20075;-67
2023/08/27 13:01:59;;;;;;;0.80;0.40;;;;;;;;;;5070754;28;20518;-67
2023/08/27 13:04:29;;;;;;;1.48;0.50;;;;;;;;;;5071639;28;20044;-66
2023/08/27 13:06:56;;;;;;;1.45;0.57;;;;;;;;;;5066252;28;20051;-66
2023/08/27 13:09:23;;;;;;;1.48;0.60;;;;;;;;;;5066901;28;20381;-67
2023/08/27 13:11:51;;;;;;;1.65;0.40;;;;;;;;;;5071619;28;20049;-67
2023/08/27 13:14:19;;;;;;;1.10;0.50;;;;;;;;;;5070408;28;20048;-66
2023/08/27 13:16:47;;;;;;;1.83;0.50;;;;;;;;;;5071866;28;20048;-66
2023/08/27 13:19:14;;;;;;;2.03;0.68;;;;;;;;;;5053317;28;20442;-66
2023/08/27 13:21:44;;;;;;;1.23;0.60;;;;;;;;;;5066181;28;20048;-66
2023/08/27 13:24:11;;;;;;;1.70;0.70;;;;;;;;;;5071413;28;20040;-66
2023/08/27 13:26:39;;;;;;;3.05;0.50;;;;;;;;;;5071273;28;20429;-67
2023/08/27 13:29:06;;;;;;;1.85;0.60;;;;;;;;;;5071602;28;20044;-66
2023/08/27 13:31:33;;;;;;;1.77;0.65;;;;;;;;;;5070723;28;20044;-65
2023/08/27 13:34:00;;;;;;;0.77;0.32;;;;;;;;;;5067061;28;20048;-66
2023/08/27 13:36:28;;;;;;;3.40;0.57;;;;;;;;;;5069607;28;20133;-66
2023/08/27 13:38:56;;;;;;;2.47;0.60;;;;;;;;;;5069956;28;20542;-66
2023/08/27 13:41:24;;;;;;;0.85;0.60;;;;;;;;;;5068679;28;20040;-66
2023/08/27 13:43:51;;;;;;;1.70;0.60;;;;;;;;;;5069587;28;20052;-69
2023/08/27 13:46:18;;;;;;;0.82;0.35;;;;;;;;;;5070763;28;20044;-66
2023/08/27 13:48:45;;;;;;;0.30;0.30;;;;;;;;;;5067820;28;20135;-66
2023/08/27 13:51:15;;;;;;;1.23;0.50;;;;;;;;;;5069402;28;20044;-67
2023/08/27 13:53:42;;;;;;;0.73;0.50;;;;;;;;;;5070527;28;20606;-66
2023/08/27 13:56:10;;;;;;;5.90;0.50;;;;;;;;;;5071684;28;20056;-67
2023/08/27 13:58:40;;;;;;;3.38;0.40;;;;;;;;;;5068801;28;20052;-65
2023/08/27 14:01:08;;;;;;;1.40;0.50;;;;;;;;;;5053268;28;20136;-66
2023/08/27 14:03:35;;;;;;;1.00;0.45;;;;;;;;;;5068947;28;20044;-67
2023/08/27 14:06:02;;;;;;;0.55;0.32;;;;;;;;;;5070323;28;20086;-66
2023/08/27 14:08:30;;;;;;;1.27;0.38;;;;;;;;;;5069331;28;20403;-65
2023/08/27 14:10:58;;;;;;;1.10;0.50;;;;;;;;;;5068726;28;20052;-65
2023/08/27 14:13:26;;;;;;;1.23;0.47;;;;;;;;;;5070695;28;20087;-65
2023/08/27 14:15:54;;;;;;;3.25;0.80;;;;;;;;;;5069409;28;20056;-65
2023/08/27 14:18:21;;;;;;;6.90;0.80;;;;;;;;;;5063366;28;20045;-66
2023/08/27 14:20:49;;;;;;;1.90;0.63;;;;;;;;;;5067557;28;20048;-66
2023/08/27 14:23:16;;;;;;;2.08;0.57;;;;;;;;;;5065744;28;20063;-66
2023/08/27 14:25:44;;;;;;;1.50;0.45;;;;;;;;;;5067819;28;20056;-67
2023/08/27 14:28:11;;;;;;;3.97;0.75;;;;;;;;;;5065246;28;20064;-67
2023/08/27 14:30:39;;;;;;;2.25;0.50;;;;;;;;;;5063412;28;20412;-66
2023/08/27 14:33:07;;;;;;;1.48;0.40;;;;;;;;;;5068624;28;20376;-65
2023/08/27 14:35:34;;;;;;;3.95;0.60;;;;;;;;;;5066872;28;20049;-66
2023/08/27 14:38:01;;;;;;;4.75;0.82;;;;;;;;;;5060104;28;20060;-66
2023/08/27 14:40:28;;;;;;;1.10;0.70;;;;;;;;;;5069391;28;20404;-66
2023/08/27 14:42:55;;;;;;;1.02;0.40;;;;;;;;;;5062537;28;20064;-66
2023/08/27 14:45:23;;;;;;;1.63;0.55;;;;;;;;;;5064166;28;20049;-66